Airport View

Enter AWOS ICAO identifier for current METAR.

ex. KFNL

KFOD 170045Z AUTO 16007G14KT 10SM FEW 120 08/M03 A3000 RMK TS INFO NOT AVBL

17 Nov 2019 10:57

Frequency: 118.775

Phone: 515-955-5490

Other Area AWOS: KEBS - KCAV - KAXA - KBNW

TAF KFOD 170531Z 1706/1806 16012KT P6SM OVC100 FM170800 18009KT 6SM -RA SCT025 OVC080 FM171000 24007KT P6SM VCSH OVC025 FM171300 32010G16KT P6SM OVC030